CEST,Max TemperatureF,Mean TemperatureF,Min TemperatureF,Max Dew PointF,MeanDew PointF,Min DewpointF,Max Humidity, Mean Humidity, Min Humidity, Max Sea Level PressureIn, Mean Sea Level PressureIn, Min Sea Level PressureIn, Max VisibilityMiles, Mean VisibilityMiles, Min VisibilityMiles, Max Wind SpeedMPH, Mean Wind SpeedMPH, Max Gust SpeedMPH,PrecipitationIn, CloudCover, Events, WindDirDegrees
2013-7-1,66,56,46,54,46,39,94,69,43,30.24,30.18,30.12,6,6,6,10,5,22,0.00,4,,127
2013-7-2,66,58,50,54,48,39,100,75,40,30.21,30.18,30.12,6,6,6,10,2,,0.00,4,,198
2013-7-3,55,53,53,54,53,52,100,94,88,30.12,30.11,30.09,6,6,6,4,1,,0.00,8,,150
2013-7-4,71,62,53,52,45,39,94,54,33,30.33,30.20,30.15,6,6,6,9,6,,0.00,6,,15
2013-7-5,77,67,57,54,47,37,88,55,24,30.39,30.33,30.30,6,6,6,10,7,25,0.00,4,,8
2013-7-6,77,67,57,54,47,36,88,56,22,30.42,30.36,30.30,6,6,6,9,8,21,0.00,5,,10
2013-7-7,73,65,57,57,52,45,88,66,38,30.42,30.38,30.36,6,6,6,8,6,,0.00,5,Thunderstorm,6
2013-7-8,69,63,57,63,57,50,100,82,49,30.42,30.39,30.33,6,6,4,8,5,,0.00,3,Rain-Thunderstorm,356
2013-7-9,66,60,55,55,51,43,94,74,45,30.42,30.32,30.24,6,6,3,8,4,,0.00,5,Rain,272
2013-7-10,77,66,55,55,46,30,94,57,18,30.24,30.11,30.04,6,6,6,9,5,,0.00,3,,354
2013-7-11,77,66,55,50,42,28,82,50,17,30.09,30.04,29.95,6,6,6,8,5,,0.00,3,,360
2013-7-12,77,65,53,52,34,16,88,44,10,30.15,30.10,30.06,,,,8,6,,0.00,,,3
2013-7-13,77,65,53,48,38,27,77,40,16,30.21,30.14,30.09,,,,7,5,,0.00,,,2
2013-7-14,75,64,53,50,42,28,88,48,18,30.24,30.19,30.15,,,,8,5,,0.00,,,8
2013-7-15,77,66,55,54,46,39,88,52,26,30.27,30.22,30.18,,,,8,4,,0.00,,,4
2013-7-16,73,63,53,59,48,39,88,55,29,30.30,30.24,30.18,,,,8,4,,0.00,,,222
2013-7-17,73,65,57,64,57,50,100,75,46,30.30,30.24,30.18,6,6,6,12,4,,0.00,4,Rain-Thunderstorm,209
2013-7-18,69,61,53,59,54,48,100,79,49,30.30,30.25,30.21,6,6,6,10,5,,0.00,5,Rain-Thunderstorm,156
2013-7-19,69,60,51,57,52,46,100,79,43,30.27,30.22,30.15,6,6,4,9,4,21,0.00,4,Rain-Thunderstorm,360
2013-7-20,73,62,51,57,49,41,94,63,33,30.24,30.18,30.12,6,6,6,7,4,17,0.00,4,,80
2013-7-21,75,67,59,64,56,48,100,75,38,30.27,30.22,30.18,6,6,4,10,4,25,0.00,3,Rain-Thunderstorm,176
2013-7-22,78,66,53,55,49,25,100,73,14,30.27,30.22,30.12,6,6,5,7,4,18,0.00,3,Rain-Thunderstorm,14
2013-7-23,75,62,48,52,44,36,100,60,24,30.24,30.15,30.09,6,6,6,9,4,24,0.00,3,,23
2013-7-24,69,62,55,57,51,43,94,72,40,30.21,30.16,30.12,6,6,6,6,4,,0.00,4,Rain,357
2013-7-25,75,64,53,54,47,36,94,60,24,30.24,30.22,30.18,6,6,6,6,4,,0.00,3,,12
2013-7-26,71,64,57,61,55,52,94,73,50,30.27,30.23,30.21,6,6,6,6,4,,0.00,4,,194
2013-7-27,75,67,59,61,56,50,100,71,41,30.24,30.17,30.12,6,6,6,9,3,,0.00,2,Rain,124
2013-7-28,75,68,60,59,54,43,94,66,40,30.24,30.20,30.18,6,6,6,10,4,,0.00,3,,172
2013-7-29,64,58,53,57,50,43,88,76,52,30.21,30.14,30.09,6,6,6,10,6,24,0.00,5,Rain,129
2013-7-30,68,59,50,45,39,30,82,53,26,30.30,30.26,30.21,6,6,6,8,5,21,0.00,4,,18
2013-7-31,75,62,50,46,40,32,82,49,21,30.33,30.28,30.24,6,6,6,7,4,18,0.00,1,,6